Terminal Aerodrome Forecast
Issued by NWS

Home | Current Version | Previous Version | Graphics & Text | Print | Product List | Glossary On
Versions: 1 2 3 4 5 6 7 8 9 10 11 12 13 14 15 16 17 18 19 20
000
FTUS43 KOAX 271949 AAA
TAFCDR
TAF AMD
KCDR 271949Z 2720/2818 17010KT P6SM BKN050
      TEMPO 2720/2722 VRB15G25KT 3SM -TSRA BKN040CB
     FM280100 17015G25KT P6SM SCT070
     FM280800 20007KT P6SM BKN090=

USA.gov is the U.S. government's official web portal to all federal, state and local government web resources and services.